createdAt,value
2024-03-13T00:03:07.204Z,22.10
2024-03-13T00:08:17.052Z,21.53
2024-03-13T00:13:21.706Z,20.77
2024-03-13T00:18:24.957Z,21.80
2024-03-13T00:23:29.317Z,20.37
2024-03-13T00:28:33.502Z,19.90
2024-03-13T00:33:40.088Z,20.80
2024-03-13T00:38:46.985Z,20.97
2024-03-13T00:43:50.605Z,23.13
2024-03-13T00:48:55.982Z,23.13
2024-03-13T00:54:00.191Z,21.90
2024-03-13T00:59:07.249Z,20.60
2024-03-13T01:04:12.418Z,21.40
2024-03-13T01:09:16.056Z,18.80
2024-03-13T01:14:21.484Z,18.10
2024-03-13T01:19:25.287Z,21.10
2024-03-13T01:24:28.378Z,20.17
2024-03-13T01:29:31.323Z,22.37
2024-03-13T01:34:34.648Z,21.10
2024-03-13T01:39:38.210Z,22.30
2024-03-13T01:45:25.810Z,23.40
2024-03-13T01:50:47.315Z,25.17
2024-03-13T01:55:53.606Z,23.93
2024-03-13T02:01:15.258Z,26.27
2024-03-13T02:07:12.458Z,24.97
2024-03-13T02:12:24.257Z,24.37
2024-03-13T02:17:28.726Z,24.53
2024-03-13T02:22:33.612Z,23.80
2024-03-13T02:27:37.955Z,25.50
2024-03-13T02:32:42.739Z,23.83
2024-03-13T02:37:46.291Z,23.60
2024-03-13T02:42:50.038Z,22.93
2024-03-13T02:47:54.296Z,22.17
2024-03-13T02:52:58.498Z,24.53
2024-03-13T02:58:03.156Z,23.17
2024-03-13T03:03:13.350Z,23.60
2024-03-13T03:08:17.602Z,21.37
2024-03-13T03:13:24.035Z,21.47
2024-03-13T03:18:28.421Z,22.47
2024-03-13T03:23:32.285Z,20.73
2024-03-13T03:28:37.182Z,22.00
2024-03-13T03:33:41.220Z,21.53
2024-03-13T03:38:46.392Z,20.07
2024-03-13T03:43:51.644Z,22.13
2024-03-13T03:48:56.587Z,18.60
2024-03-13T03:54:03.761Z,18.77
2024-03-13T03:59:09.533Z,19.10
2024-03-13T04:04:15.153Z,18.73
2024-03-13T04:09:20.275Z,18.70
2024-03-13T04:14:23.989Z,19.33
2024-03-13T04:19:28.025Z,18.10
2024-03-13T04:24:32.092Z,20.33
2024-03-13T04:29:42.087Z,17.43
2024-03-13T04:34:52.323Z,20.90
2024-03-13T04:39:56.349Z,18.33
2024-03-13T04:45:01.763Z,19.03
2024-03-13T04:50:05.910Z,20.43
2024-03-13T04:55:10.348Z,20.33
2024-03-13T05:00:15.051Z,17.50
2024-03-13T05:05:18.458Z,18.47
2024-03-13T05:10:23.078Z,17.73
2024-03-13T05:15:26.672Z,18.97
2024-03-13T05:20:29.929Z,19.23
2024-03-13T05:25:33.299Z,19.23
2024-03-13T05:30:39.511Z,20.17
2024-03-13T05:35:43.489Z,19.37
2024-03-13T05:40:46.901Z,17.53
2024-03-13T05:45:50.004Z,17.40
2024-03-13T05:50:53.642Z,19.87
2024-03-13T05:55:56.991Z,18.87
2024-03-13T06:01:03.539Z,20.23
2024-03-13T06:06:07.029Z,23.23
2024-03-13T06:11:10.589Z,21.53
2024-03-13T06:16:16.984Z,20.93
2024-03-13T06:21:22.389Z,21.07
2024-03-13T06:26:26.439Z,19.87
2024-03-13T06:31:29.916Z,22.73
2024-03-13T06:36:33.263Z,23.27
2024-03-13T06:41:37.368Z,21.13
2024-03-13T06:46:41.046Z,21.73
2024-03-13T06:51:44.704Z,22.77
2024-03-13T06:56:49.027Z,21.57
2024-03-13T07:01:53.583Z,23.07
2024-03-13T07:06:59.638Z,24.20
2024-03-13T07:12:03.598Z,23.00
2024-03-13T07:17:08.718Z,24.10
2024-03-13T07:22:12.549Z,24.03
2024-03-13T07:27:15.635Z,25.57
2024-03-13T07:32:19.061Z,24.77
2024-03-13T07:37:22.579Z,24.87
2024-03-13T07:42:27.419Z,22.93
2024-03-13T07:47:30.598Z,23.37
2024-03-13T07:52:33.738Z,23.77
2024-03-13T07:57:37.642Z,23.23
2024-03-13T08:02:41.227Z,22.53
2024-03-13T09:06:44.938Z,22.23
2024-03-13T09:11:50.039Z,20.40
2024-03-13T09:16:53.909Z,21.77
2024-03-13T09:21:57.350Z,20.13
2024-03-13T09:27:00.367Z,22.20
2024-03-13T09:32:04.141Z,22.80
2024-03-13T09:37:10.041Z,22.07
2024-03-13T09:42:18.533Z,23.30
2024-03-13T09:47:28.997Z,22.80
2024-03-13T09:52:34.514Z,24.53
2024-03-13T09:57:39.137Z,26.53
2024-03-13T10:02:53.101Z,22.33
2024-03-13T10:07:59.670Z,22.60
2024-03-13T10:13:03.764Z,22.73
2024-03-13T10:18:19.458Z,24.17
2024-03-13T10:23:24.465Z,25.90
2024-03-13T10:28:29.518Z,22.63
2024-03-13T10:33:34.139Z,22.43
2024-03-13T10:38:37.789Z,23.27
2024-03-13T10:43:43.601Z,22.33
2024-03-13T10:48:47.186Z,22.80
2024-03-13T10:53:52.015Z,21.37
2024-03-13T10:58:58.452Z,20.37
2024-03-13T11:04:03.839Z,18.77
2024-03-13T11:09:22.799Z,20.00
2024-03-13T11:14:29.528Z,18.70
2024-03-13T11:19:35.645Z,17.63
2024-03-13T11:24:41.145Z,19.40
2024-03-13T11:29:50.267Z,18.17
2024-03-13T11:34:54.184Z,20.33
2024-03-13T11:39:58.822Z,16.63
2024-03-13T11:45:28.877Z,17.90
2024-03-13T11:50:32.795Z,17.63
2024-03-13T11:55:37.072Z,17.90
2024-03-13T12:00:41.628Z,15.70
2024-03-13T12:05:47.895Z,16.93
2024-03-13T12:10:52.832Z,16.57
2024-03-13T12:15:56.390Z,16.57
2024-03-13T12:21:00.987Z,17.83
2024-03-13T12:26:06.200Z,15.90
2024-03-13T12:31:11.777Z,14.87
2024-03-13T12:36:15.383Z,13.40
2024-03-13T12:41:18.733Z,12.40
2024-03-13T12:46:22.909Z,14.30
2024-03-13T12:51:28.950Z,12.03
2024-03-13T12:56:32.513Z,13.43
2024-03-13T13:01:36.962Z,10.90
2024-03-13T13:06:40.301Z,10.90
2024-03-13T13:11:45.922Z,12.10
2024-03-13T13:16:49.893Z,12.37
2024-03-13T13:21:53.198Z,14.13
2024-03-13T13:26:56.276Z,15.47
2024-03-13T13:32:01.837Z,14.60
2024-03-13T13:37:05.685Z,14.20
2024-03-13T13:42:09.292Z,13.33
2024-03-13T13:47:12.661Z,13.43
2024-03-13T13:52:16.113Z,13.67
2024-03-13T13:57:21.877Z,12.30
2024-03-13T14:02:28.787Z,13.30
2024-03-13T14:07:35.503Z,12.67
2024-03-13T14:12:39.720Z,11.73
2024-03-13T14:17:43.967Z,11.73
2024-03-13T14:22:53.148Z,12.53
2024-03-13T14:27:56.921Z,11.90
2024-03-13T14:33:04.860Z,14.23
2024-03-13T14:38:08.165Z,12.93
2024-03-13T14:43:12.973Z,14.30
2024-03-13T14:48:16.485Z,11.70
2024-03-13T14:53:19.654Z,13.83
2024-03-13T14:58:23.379Z,12.63
2024-03-13T15:03:32.423Z,12.93
2024-03-13T15:08:37.339Z,12.43
2024-03-13T15:13:42.835Z,11.60
2024-03-13T15:18:46.918Z,13.97
2024-03-13T15:23:52.604Z,10.27
2024-03-13T15:28:56.938Z,11.93
2024-03-13T15:34:04.082Z,13.03
2024-03-13T15:39:08.631Z,10.93
2024-03-13T15:44:14.003Z,12.13
2024-03-13T15:49:17.973Z,11.03
2024-03-13T15:54:24.440Z,11.80
2024-03-13T15:59:27.808Z,10.23
2024-03-13T16:04:31.449Z,10.63
2024-03-13T16:09:34.676Z,12.23
2024-03-13T16:14:38.964Z,11.20
2024-03-13T16:19:43.261Z,11.83
2024-03-13T16:24:47.503Z,10.30
2024-03-13T16:29:51.291Z,11.10
2024-03-13T16:34:54.814Z,10.00
2024-03-13T16:39:58.584Z,10.10
2024-03-13T16:45:01.890Z,10.93
2024-03-13T16:50:05.680Z,10.63
2024-03-13T16:55:13.514Z,10.57
2024-03-13T17:00:18.431Z,9.90
2024-03-13T17:05:22.606Z,10.20
2024-03-13T17:10:26.445Z,9.43
2024-03-13T17:15:31.993Z,10.27
2024-03-13T17:20:35.862Z,10.20
2024-03-13T17:25:39.677Z,12.13
2024-03-13T17:30:44.025Z,22.70
2024-03-13T17:35:48.143Z,23.73
2024-03-13T17:40:51.997Z,21.50
2024-03-13T17:45:56.734Z,19.27
2024-03-13T17:51:00.772Z,18.20
2024-03-13T17:56:05.360Z,20.13
2024-03-13T18:01:10.552Z,18.30
2024-03-13T18:06:21.874Z,22.17
2024-03-13T18:11:29.900Z,16.37
2024-03-13T18:16:37.581Z,22.37
2024-03-13T18:21:41.950Z,24.10
2024-03-13T18:26:47.699Z,15.03
2024-03-13T18:31:53.343Z,13.87
2024-03-13T18:36:57.982Z,11.73
2024-03-13T18:42:02.760Z,10.73
2024-03-13T18:47:07.020Z,12.27
2024-03-13T18:52:11.419Z,15.13
2024-03-13T18:57:16.161Z,13.40
2024-03-13T19:02:24.376Z,12.37
2024-03-13T19:07:29.198Z,11.17
2024-03-13T19:12:33.667Z,13.40
2024-03-13T19:17:38.027Z,12.50
2024-03-13T19:22:42.699Z,13.97
2024-03-13T19:27:46.382Z,14.13
2024-03-13T19:32:50.510Z,13.70
2024-03-13T19:37:54.783Z,12.10
2024-03-13T19:43:01.969Z,12.87
2024-03-13T19:48:07.679Z,13.00
2024-03-13T19:53:12.060Z,13.53
2024-03-13T19:58:15.906Z,16.27
2024-03-13T20:03:20.209Z,13.40
2024-03-13T20:08:24.664Z,11.73
2024-03-13T20:13:29.262Z,12.20
2024-03-13T20:18:33.483Z,12.23
2024-03-13T20:23:37.582Z,13.20
2024-03-13T20:28:42.221Z,13.43
2024-03-13T20:33:46.443Z,19.13
2024-03-13T20:38:50.225Z,36.67
2024-03-13T20:43:54.148Z,31.10
2024-03-13T20:48:58.339Z,28.07
2024-03-13T20:54:04.152Z,21.07
2024-03-13T20:59:10.945Z,20.27
2024-03-13T21:04:14.689Z,20.57
2024-03-13T21:09:21.398Z,19.70
2024-03-13T21:14:25.619Z,21.40
2024-03-13T21:19:29.170Z,20.80
2024-03-13T21:24:32.829Z,20.23
2024-03-13T21:29:36.451Z,19.20
2024-03-13T21:34:40.696Z,16.27
2024-03-13T21:39:44.435Z,15.07
2024-03-13T21:44:48.208Z,16.90
2024-03-13T21:49:52.595Z,15.77
2024-03-13T21:54:56.211Z,15.67
2024-03-13T22:00:00.102Z,16.37
2024-03-13T22:05:05.734Z,16.10
2024-03-13T22:10:09.569Z,17.10
2024-03-13T22:15:16.654Z,17.90
2024-03-13T22:20:20.566Z,18.83
2024-03-13T22:25:24.142Z,19.47
2024-03-13T22:30:28.031Z,19.63
2024-03-13T22:35:32.032Z,19.03
2024-03-13T22:40:35.399Z,24.17
2024-03-13T22:45:38.995Z,23.33
2024-03-13T22:50:42.563Z,22.27
2024-03-13T22:55:46.136Z,19.57
2024-03-13T23:00:57.042Z,19.43
2024-03-13T23:06:00.697Z,20.77
2024-03-13T23:11:04.896Z,23.40
2024-03-13T23:16:08.932Z,22.57
2024-03-13T23:21:12.772Z,21.83
2024-03-13T23:26:16.516Z,22.07
2024-03-13T23:31:19.748Z,20.73
2024-03-13T23:36:22.985Z,17.33
2024-03-13T23:41:26.255Z,19.27
2024-03-13T23:46:29.643Z,18.73
2024-03-13T23:51:36.477Z,17.67
2024-03-13T23:56:42.811Z,16.93
